Time;durP1;ratioP1;P1;durP2;ratioP2;P2;SDS_P1;SDS_P2;PMS_P1;PMS_P2;Temp;Humidity;BMP_temperature;BMP_pressure;BME280_temperature;BME280_humidity;BME280_pressure;Samples;Min_cycle;Max_cycle;Signal;HPM_P1;HPM_P2
2022/08/07 00:00:31;;;;;;;1.27;0.57;;;;;;;14.42;81.73;97426.72;5047602;28;20057;-71
2022/08/07 00:02:57;;;;;;;3.05;0.60;;;;;;;14.36;82.52;97436.59;5051287;28;20707;-71
2022/08/07 00:05:24;;;;;;;1.20;0.47;;;;;;;14.29;83.10;97424.38;5048378;28;20048;-71
2022/08/07 00:07:50;;;;;;;3.65;0.50;;;;;;;14.25;85.17;97428.63;5078668;28;20040;-71
2022/08/07 00:10:16;;;;;;;1.42;0.40;;;;;;;14.19;86.06;97431.25;5047985;28;20605;-71
2022/08/07 00:12:42;;;;;;;2.10;0.50;;;;;;;14.09;86.03;97425.72;5046575;28;20182;-71
2022/08/07 00:15:08;;;;;;;1.63;0.40;;;;;;;14.16;86.79;97421.00;5048060;28;20111;-71
2022/08/07 00:17:34;;;;;;;1.30;0.50;;;;;;;14.25;83.11;97417.88;5047876;28;20037;-71
2022/08/07 00:20:00;;;;;;;3.30;0.50;;;;;;;14.35;82.94;97423.38;5046605;28;20102;-71
2022/08/07 00:22:25;;;;;;;2.67;0.50;;;;;;;14.31;83.02;97416.84;5048559;28;20079;-71
2022/08/07 00:24:51;;;;;;;1.25;0.50;;;;;;;14.22;84.11;97419.97;5047126;28;20265;-71
2022/08/07 00:27:16;;;;;;;7.72;0.50;;;;;;;14.24;83.93;97414.38;5051046;28;20530;-71
2022/08/07 00:29:42;;;;;;;1.85;0.90;;;;;;;14.17;83.19;97409.16;5063151;28;20041;-71
2022/08/07 00:32:08;;;;;;;1.50;0.60;;;;;;;14.15;83.53;97405.88;5046807;28;20049;-71
2022/08/07 00:34:34;;;;;;;1.60;0.50;;;;;;;14.17;83.99;97411.84;5062700;28;20319;-71
2022/08/07 00:36:59;;;;;;;1.08;0.50;;;;;;;14.17;83.25;97417.22;5054662;28;20339;-71
2022/08/07 00:39:25;;;;;;;1.13;0.45;;;;;;;14.13;85.04;97416.09;5046912;28;20044;-71
2022/08/07 00:41:54;;;;;;;1.48;0.50;;;;;;;14.05;86.30;97411.13;5049165;28;20453;-71
2022/08/07 00:44:20;;;;;;;0.95;0.50;;;;;;;13.97;84.93;97405.34;5050944;28;20106;-71
2022/08/07 00:46:45;;;;;;;2.42;0.50;;;;;;;14.00;84.55;97405.66;5046713;28;20393;-71
2022/08/07 00:49:12;;;;;;;1.27;0.40;;;;;;;14.03;84.93;97404.38;5049005;28;20039;-71
2022/08/07 00:51:37;;;;;;;3.70;0.60;;;;;;;14.01;84.53;97396.56;5065675;28;20264;-71
2022/08/07 00:54:03;;;;;;;1.45;0.40;;;;;;;13.97;85.85;97392.72;5050035;28;20060;-71
2022/08/07 00:56:29;;;;;;;2.80;0.50;;;;;;;13.97;84.76;97392.72;5048377;28;20475;-71
2022/08/07 00:58:57;;;;;;;1.80;0.43;;;;;;;13.92;86.36;97398.00;5045990;28;20566;-71
2022/08/07 01:01:23;;;;;;;2.17;0.50;;;;;;;13.85;85.67;97395.50;5048859;28;20643;-71
2022/08/07 01:03:50;;;;;;;0.68;0.30;;;;;;;13.84;85.47;97390.34;5049675;28;20465;-71
2022/08/07 01:06:17;;;;;;;1.83;0.50;;;;;;;13.83;85.14;97381.47;5050210;28;20446;-71
2022/08/07 01:08:44;;;;;;;2.05;0.60;;;;;;;13.85;86.54;97379.38;5050080;28;20340;-71
2022/08/07 01:11:12;;;;;;;1.20;0.43;;;;;;;13.87;85.12;97387.19;5062239;28;20103;-71
2022/08/07 01:13:38;;;;;;;1.63;0.50;;;;;;;13.91;85.55;97385.63;5048772;28;20048;-71
2022/08/07 01:16:05;;;;;;;6.28;0.50;;;;;;;13.93;87.20;97378.94;5061526;28;20044;-71
2022/08/07 01:18:31;;;;;;;1.85;0.60;;;;;;;13.92;86.21;97382.69;5049929;28;20246;-71
2022/08/07 01:21:18;;;;;;;3.55;0.60;;;;;;;13.89;87.36;97374.28;5047369;28;20044;-71
2022/08/07 01:23:46;;;;;;;1.65;0.50;;;;;;;13.88;85.92;97378.06;5066118;28;20036;-71
2022/08/07 01:26:15;;;;;;;2.88;0.50;;;;;;;13.79;86.57;97379.53;5079582;28;20047;-71
2022/08/07 01:28:45;;;;;;;1.20;0.50;;;;;;;13.77;86.83;97384.31;5048076;28;20048;-71
2022/08/07 01:31:14;;;;;;;2.40;0.50;;;;;;;13.74;87.63;97384.84;5050246;28;20488;-71
2022/08/07 01:33:40;;;;;;;3.13;0.52;;;;;;;13.69;87.43;97382.88;5076138;28;20045;-71
2022/08/07 01:36:08;;;;;;;1.15;0.40;;;;;;;13.61;89.17;97381.41;5050435;28;20391;-71
2022/08/07 01:38:38;;;;;;;1.85;0.50;;;;;;;13.57;87.49;97377.59;5041959;28;20688;-71
2022/08/07 01:41:16;;;;;;;2.30;0.50;;;;;;;13.60;87.99;97379.78;5046508;28;20054;-71
2022/08/07 01:43:42;;;;;;;2.83;0.57;;;;;;;13.55;89.81;97373.53;5046066;28;20444;-71
2022/08/07 01:46:07;;;;;;;1.08;0.40;;;;;;;13.54;88.69;97370.03;5047285;28;20036;-71
2022/08/07 01:48:37;;;;;;;1.63;0.50;;;;;;;13.48;88.89;97380.94;5043015;28;20481;-71
2022/08/07 01:51:06;;;;;;;3.47;0.43;;;;;;;13.46;88.70;97385.72;5047422;28;20388;-71
2022/08/07 01:53:34;;;;;;;1.95;0.60;;;;;;;13.48;88.84;97384.44;5045461;28;20033;-71
2022/08/07 01:56:08;;;;;;;1.67;0.50;;;;;;;13.50;89.92;97378.81;5047949;28;20037;-71
2022/08/07 01:58:39;;;;;;;4.45;0.60;;;;;;;13.44;90.91;97377.09;5049469;28;20501;-71
2022/08/07 02:01:09;;;;;;;1.58;0.50;;;;;;;13.41;91.19;97383.78;5077892;28;20052;-71
2022/08/07 02:03:40;;;;;;;1.27;0.50;;;;;;;13.40;90.09;97384.84;5047967;28;20357;-71
2022/08/07 02:06:13;;;;;;;1.73;0.52;;;;;;;13.38;89.71;97382.41;5043818;28;20507;-71
2022/08/07 02:08:41;;;;;;;2.28;0.63;;;;;;;13.40;90.92;97371.41;5044029;28;20109;-71
2022/08/07 02:11:08;;;;;;;1.15;0.50;;;;;;;13.41;90.60;97378.41;5050518;28;20041;-71
2022/08/07 02:13:37;;;;;;;0.73;0.38;;;;;;;13.41;90.99;97382.97;5045641;28;20045;-71
2022/08/07 02:16:05;;;;;;;2.40;0.50;;;;;;;13.36;90.85;97373.75;5047501;28;20033;-71
2022/08/07 02:18:33;;;;;;;0.80;0.40;;;;;;;13.38;91.20;97377.03;5065746;28;20036;-71
2022/08/07 02:21:02;;;;;;;1.45;0.60;;;;;;;13.34;91.43;97381.25;5049718;28;20495;-71
2022/08/07 02:23:31;;;;;;;1.15;0.50;;;;;;;13.16;93.28;97386.03;5051779;28;20076;-71
2022/08/07 02:25:57;;;;;;;1.40;0.50;;;;;;;13.17;92.25;97369.66;5060818;28;20036;-71
2022/08/07 02:28:27;;;;;;;1.40;0.50;;;;;;;13.07;94.19;97375.66;5079806;28;20993;-71
2022/08/07 02:30:58;;;;;;;2.45;0.52;;;;;;;12.93;93.87;97373.50;5063518;28;20041;-71
2022/08/07 02:33:25;;;;;;;1.48;0.60;;;;;;;12.80;93.87;97374.63;5041153;28;20213;-74
2022/08/07 02:35:54;;;;;;;2.53;0.60;;;;;;;12.81;93.00;97376.25;5047946;28;20237;-71
2022/08/07 02:38:24;;;;;;;1.80;0.60;;;;;;;12.84;94.73;97367.72;5041893;28;20040;-71
2022/08/07 02:40:51;;;;;;;1.38;0.55;;;;;;;12.85;94.38;97368.53;5047910;28;20043;-71
2022/08/07 02:43:17;;;;;;;2.28;0.60;;;;;;;12.87;92.61;97375.28;5080369;28;20036;-71
2022/08/07 02:45:44;;;;;;;1.38;0.50;;;;;;;12.91;94.48;97370.22;5045201;28;20438;-71
2022/08/07 02:48:11;;;;;;;2.00;0.52;;;;;;;12.87;93.68;97372.59;5032192;28;20574;-71
2022/08/07 02:50:41;;;;;;;1.42;0.43;;;;;;;12.80;94.24;97369.25;5044923;28;20423;-71
2022/08/07 02:53:34;;;;;;;1.58;0.60;;;;;;;12.81;95.90;97373.56;5065400;28;20044;-71
2022/08/07 02:56:03;;;;;;;2.70;0.47;;;;;;;12.86;94.41;97362.91;5047247;28;20044;-71
2022/08/07 02:58:30;;;;;;;1.00;0.43;;;;;;;12.90;93.09;97374.78;5065544;28;20267;-71
2022/08/07 03:00:58;;;;;;;1.48;0.70;;;;;;;12.84;94.65;97365.03;5041365;28;20057;-71
2022/08/07 03:03:26;;;;;;;2.35;0.60;;;;;;;12.86;94.85;97362.09;5060647;28;20284;-71
2022/08/07 03:05:55;;;;;;;1.80;0.75;;;;;;;12.82;95.21;97359.06;5061120;28;20234;-71
2022/08/07 03:08:21;;;;;;;3.88;0.70;;;;;;;12.76;97.68;97354.66;5046168;28;20134;-71
2022/08/07 03:10:51;;;;;;;2.00;0.50;;;;;;;12.78;94.14;97355.25;5076004;28;20041;-71
2022/08/07 03:13:22;;;;;;;1.35;0.55;;;;;;;12.71;95.83;97368.81;5076324;28;20100;-71
2022/08/07 03:15:50;;;;;;;3.75;0.60;;;;;;;12.68;96.24;97360.41;5046535;28;20106;-71
2022/08/07 03:18:16;;;;;;;3.33;0.70;;;;;;;12.69;97.19;97359.38;5041523;28;20082;-71
2022/08/07 03:20:43;;;;;;;5.10;0.63;;;;;;;12.64;94.59;97364.63;5045356;28;20059;-71
2022/08/07 03:23:09;;;;;;;1.55;0.50;;;;;;;12.61;96.75;97352.53;5048769;28;20037;-71
2022/08/07 03:25:39;;;;;;;1.88;0.73;;;;;;;12.62;96.74;97350.66;5043998;28;20614;-71
2022/08/07 03:28:09;;;;;;;3.03;0.70;;;;;;;12.58;95.99;97344.94;5077187;28;20048;-71
2022/08/07 03:30:37;;;;;;;1.65;0.50;;;;;;;12.58;96.16;97347.63;5045303;28;20067;-71
2022/08/07 03:33:03;;;;;;;2.95;0.60;;;;;;;12.64;96.45;97357.41;5047815;28;20443;-71
2022/08/07 03:35:32;;;;;;;1.80;0.60;;;;;;;12.62;97.19;97346.09;5062475;28;20337;-71
2022/08/07 03:38:02;;;;;;;3.38;0.80;;;;;;;12.60;96.97;97350.06;5046962;28;20284;-71
2022/08/07 03:40:30;;;;;;;1.98;0.55;;;;;;;12.59;95.83;97337.69;5047853;28;20029;-71
2022/08/07 03:42:58;;;;;;;2.13;0.70;;;;;;;12.61;96.63;97343.66;5069586;28;20036;-71
2022/08/07 03:45:27;;;;;;;2.13;0.55;;;;;;;12.58;96.99;97336.06;5044133;28;20037;-71
2022/08/07 03:47:53;;;;;;;2.80;0.70;;;;;;;12.50;96.85;97329.19;5080553;28;20036;-71
2022/08/07 03:50:21;;;;;;;1.33;0.63;;;;;;;12.57;97.34;97340.63;5050786;28;20028;-71
2022/08/07 03:52:48;;;;;;;1.52;0.60;;;;;;;12.57;96.66;97342.50;5063980;28;20040;-71
2022/08/07 03:55:15;;;;;;;1.60;0.50;;;;;;;12.61;96.12;97340.97;5047143;28;20040;-71
2022/08/07 03:57:45;;;;;;;2.03;0.60;;;;;;;12.62;95.82;97348.78;5050307;28;20044;-71
2022/08/07 04:00:13;;;;;;;5.93;1.52;;;;;;;12.63;96.40;97336.97;5079748;28;20594;-71
2022/08/07 04:02:43;;;;;;;2.95;0.68;;;;;;;12.63;96.73;97341.53;5051069;28;20058;-71
2022/08/07 04:05:12;;;;;;;1.55;0.60;;;;;;;12.53;97.37;97337.59;5050586;28;20040;-71
2022/08/07 04:07:44;;;;;;;5.07;0.60;;;;;;;12.53;98.02;97342.97;5049911;28;20040;-71
2022/08/07 04:10:11;;;;;;;3.13;0.55;;;;;;;12.51;97.08;97345.06;5049120;28;20130;-71
2022/08/07 04:12:37;;;;;;;1.65;0.60;;;;;;;12.50;96.71;97334.56;5049868;28;20067;-71
2022/08/07 04:15:04;;;;;;;1.60;0.60;;;;;;;12.40;99.72;97335.19;5078990;27;20056;-71
2022/08/07 04:17:32;;;;;;;3.30;0.50;;;;;;;12.34;99.48;97336.16;5065608;28;20032;-71
2022/08/07 04:19:58;;;;;;;1.30;0.50;;;;;;;12.26;100.00;97336.53;5037897;28;20060;-71
2022/08/07 04:22:27;;;;;;;1.83;0.60;;;;;;;12.20;100.00;97348.19;5050321;28;20041;-71
2022/08/07 04:24:54;;;;;;;1.75;0.82;;;;;;;12.22;99.63;97338.06;5049987;28;20040;-71
2022/08/07 04:27:20;;;;;;;2.90;0.60;;;;;;;12.20;100.00;97354.38;5052483;28;20410;-71
2022/08/07 04:29:46;;;;;;;4.45;0.80;;;;;;;12.28;100.00;97347.81;5031078;28;20115;-71
2022/08/07 04:32:12;;;;;;;3.67;0.65;;;;;;;12.31;100.00;97352.72;5051614;28;20202;-72
2022/08/07 04:34:38;;;;;;;2.30;0.60;;;;;;;12.33;98.68;97353.31;5078990;28;20040;-71
2022/08/07 04:37:07;;;;;;;1.92;0.60;;;;;;;12.36;100.00;97346.63;5049342;28;20043;-71
2022/08/07 04:39:33;;;;;;;1.70;0.50;;;;;;;12.40;98.64;97348.63;5048910;28;20433;-71
2022/08/07 04:42:02;;;;;;;4.43;0.60;;;;;;;12.36;100.00;97363.56;5047312;28;20700;-72
2022/08/07 04:44:27;;;;;;;3.28;0.50;;;;;;;12.45;98.28;97362.16;5048359;28;20040;-72
2022/08/07 04:47:10;;;;;;;1.17;0.57;;;;;;;12.50;99.31;97374.84;5048732;28;20240;-71
2022/08/07 04:49:51;;;;;;;3.30;0.50;;;;;;;12.48;97.67;97361.66;5050533;28;20064;-71
2022/08/07 04:52:40;;;;;;;1.60;0.60;;;;;;;12.50;98.54;97364.09;5064728;28;20041;-71
2022/08/07 04:55:27;;;;;;;3.17;0.70;;;;;;;12.41;99.34;97366.34;5061339;28;20154;-71
2022/08/07 04:58:02;;;;;;;1.65;0.55;;;;;;;12.42;100.00;97377.91;5080573;28;20247;-71
2022/08/07 05:00:44;;;;;;;2.50;0.70;;;;;;;12.43;99.88;97374.97;5048534;28;20067;-71
2022/08/07 05:03:23;;;;;;;2.17;0.60;;;;;;;12.34;100.00;97368.34;5044840;28;20037;-71
2022/08/07 05:06:06;;;;;;;3.00;0.65;;;;;;;12.28;100.00;97372.78;5048735;28;20261;-71
2022/08/07 05:08:51;;;;;;;2.70;0.60;;;;;;;12.27;100.00;97373.03;5046037;28;20055;-71
2022/08/07 05:11:29;;;;;;;4.35;0.50;;;;;;;12.35;100.00;97372.66;5078021;28;20507;-71
2022/08/07 05:14:18;;;;;;;3.63;0.60;;;;;;;12.37;100.00;97386.66;5047627;28;20075;-71
2022/08/07 05:16:46;;;;;;;1.35;0.57;;;;;;;12.46;100.00;97393.31;5064221;28;20082;-71
2022/08/07 05:19:18;;;;;;;2.20;0.60;;;;;;;12.55;100.00;97383.81;5077810;28;20125;-71
2022/08/07 05:21:50;;;;;;;3.60;0.70;;;;;;;12.68;100.00;97380.03;5050966;28;20044;-71
2022/08/07 05:24:16;;;;;;;;;;;;;;;12.78;100.00;97387.47;5045471;28;20138;-71
2022/08/07 05:26:43;;;;;;;1.33;0.60;;;;;;;12.90;98.16;97382.84;5047353;28;19920;-71
2022/08/07 05:29:12;;;;;;;2.08;0.70;;;;;;;12.97;98.34;97386.22;5049705;28;20033;-71
2022/08/07 05:31:40;;;;;;;2.53;0.77;;;;;;;13.07;99.38;97375.66;5048162;28;20052;-71
2022/08/07 05:34:14;;;;;;;2.90;0.57;;;;;;;13.16;100.00;97380.66;5043595;28;20490;-72
2022/08/07 05:36:46;;;;;;;4.28;0.70;;;;;;;13.23;100.00;97384.00;5048668;28;20578;-72
2022/08/07 05:39:30;;;;;;;2.97;0.63;;;;;;;13.24;100.00;97391.84;5049825;28;20059;-72
2022/08/07 05:42:00;;;;;;;3.17;0.70;;;;;;;13.35;99.97;97395.50;5077510;28;20034;-72
2022/08/07 05:44:28;;;;;;;2.55;0.60;;;;;;;13.49;97.88;97386.06;5075524;28;20072;-71
2022/08/07 05:46:55;;;;;;;1.48;0.60;;;;;;;13.59;98.86;97399.66;5043639;28;20484;-72
2022/08/07 05:49:25;;;;;;;5.50;0.60;;;;;;;13.65;99.38;97387.94;5076885;28;20155;-72
2022/08/07 05:51:52;;;;;;;1.90;0.60;;;;;;;13.71;99.31;97394.22;5049273;28;20381;-72
2022/08/07 05:54:20;;;;;;;1.42;0.50;;;;;;;13.71;100.00;97396.91;5031139;28;20628;-72
2022/08/07 05:56:47;;;;;;;1.80;0.70;;;;;;;13.78;98.89;97392.19;5066971;28;20090;-72
2022/08/07 05:59:16;;;;;;;2.00;0.65;;;;;;;13.93;97.27;97399.66;5061483;28;20452;-72
2022/08/07 06:01:44;;;;;;;1.42;0.60;;;;;;;14.05;96.31;97399.53;5047236;28;20945;-72
2022/08/07 06:04:14;;;;;;;6.30;0.65;;;;;;;14.13;97.31;97393.75;5046756;28;20051;-72
2022/08/07 06:06:40;;;;;;;3.55;0.50;;;;;;;14.23;97.04;97399.25;5078083;28;20036;-71
2022/08/07 06:09:09;;;;;;;3.50;0.60;;;;;;;14.34;96.05;97397.53;5044166;28;20072;-71
2022/08/07 06:11:38;;;;;;;2.47;0.50;;;;;;;14.42;95.45;97392.50;5078881;28;20131;-71
2022/08/07 06:14:04;;;;;;;2.20;0.68;;;;;;;14.52;95.74;97397.25;5064284;28;20067;-71
2022/08/07 06:16:34;;;;;;;2.88;0.70;;;;;;;14.57;95.94;97402.69;5048170;28;20116;-71
2022/08/07 06:19:02;;;;;;;1.35;0.60;;;;;;;14.66;96.48;97406.56;5050453;28;20036;-71
2022/08/07 06:21:30;;;;;;;9.95;1.00;;;;;;;14.74;95.44;97405.31;5061719;28;20110;-71
2022/08/07 06:23:57;;;;;;;1.73;0.60;;;;;;;14.82;94.80;97404.06;5079279;28;20049;-71
2022/08/07 06:26:24;;;;;;;2.20;0.60;;;;;;;14.88;93.93;97408.44;5059606;28;20537;-71
2022/08/07 06:28:53;;;;;;;3.33;0.70;;;;;;;14.97;92.17;97409.63;5060173;28;20115;-71
2022/08/07 06:31:19;;;;;;;2.03;0.60;;;;;;;15.07;92.88;97404.31;5060435;28;20051;-71
2022/08/07 06:33:46;;;;;;;1.38;0.57;;;;;;;15.14;93.35;97402.25;5027149;28;20541;-71
2022/08/07 06:36:12;;;;;;;2.33;0.60;;;;;;;15.23;93.04;97395.31;5045743;28;20032;-71
2022/08/07 06:38:43;;;;;;;3.53;0.53;;;;;;;15.29;92.36;97399.69;5076376;28;20471;-71
2022/08/07 06:41:14;;;;;;;4.05;0.90;;;;;;;15.37;91.91;97398.41;5043026;28;20052;-71
2022/08/07 06:43:44;;;;;;;2.08;0.60;;;;;;;15.47;92.15;97401.19;5078917;28;20512;-71
2022/08/07 06:46:13;;;;;;;1.42;0.60;;;;;;;15.58;92.99;97399.41;4699036;28;9999804;-71
2022/08/07 06:48:41;;;;;;;2.17;0.65;;;;;;;15.68;89.92;97398.69;4724203;28;10000095;-71
2022/08/07 06:51:11;;;;;;;2.47;0.70;;;;;;;15.76;93.00;97396.34;5059263;28;20037;-71
2022/08/07 06:53:40;;;;;;;2.47;0.60;;;;;;;15.86;89.39;97390.19;5064006;28;20101;-71
2022/08/07 06:56:08;;;;;;;1.35;0.50;;;;;;;15.96;89.75;97390.28;5047194;28;20037;-71
2022/08/07 06:58:37;;;;;;;3.55;0.70;;;;;;;16.04;90.70;97380.88;5044375;28;20466;-71
2022/08/07 07:01:09;;;;;;;2.63;0.70;;;;;;;16.14;91.56;97386.34;5060641;28;20040;-71
2022/08/07 07:03:39;;;;;;;3.08;0.50;;;;;;;16.19;89.02;97383.66;5048975;28;20103;-71
2022/08/07 07:06:07;;;;;;;2.88;0.60;;;;;;;16.28;89.28;97378.59;5077009;28;20483;-71
2022/08/07 07:08:33;;;;;;;5.15;0.60;;;;;;;16.38;88.19;97389.44;5074665;28;20239;-72
2022/08/07 07:11:00;;;;;;;2.00;0.60;;;;;;;16.44;87.79;97397.28;5047817;28;20634;-71
2022/08/07 07:13:35;;;;;;;1.75;0.70;;;;;;;16.49;85.99;97388.38;5044999;28;20699;-71
2022/08/07 07:16:06;;;;;;;1.52;0.55;;;;;;;16.60;87.78;97383.84;5048806;28;20813;-71
2022/08/07 07:18:47;;;;;;;3.30;0.70;;;;;;;16.65;86.43;97382.00;5049241;28;20563;-72
2022/08/07 07:21:34;;;;;;;3.97;0.70;;;;;;;16.77;87.87;97387.19;5047971;28;20090;-71
2022/08/07 07:24:00;;;;;;;3.90;0.63;;;;;;;16.85;86.17;97381.25;5081639;28;20487;-71
2022/08/07 07:26:29;;;;;;;1.60;0.60;;;;;;;16.91;84.26;97380.19;5047140;28;20433;-71
2022/08/07 07:29:07;;;;;;;3.45;0.65;;;;;;;16.91;80.09;97385.59;5045640;28;20051;-71
2022/08/07 07:31:39;;;;;;;2.28;0.52;;;;;;;17.02;82.31;97382.91;5048376;28;20146;-72
2022/08/07 07:34:08;;;;;;;4.53;0.60;;;;;;;17.03;74.48;97379.94;5050190;28;20266;-71
2022/08/07 07:36:36;;;;;;;5.43;0.80;;;;;;;17.01;72.97;97378.59;5051776;28;20041;-72
2022/08/07 07:39:04;;;;;;;1.60;0.60;;;;;;;17.14;76.64;97378.09;5049139;28;20069;-71
2022/08/07 07:41:32;;;;;;;1.88;0.68;;;;;;;17.33;77.67;97379.19;5051869;28;20284;-71
2022/08/07 07:43:59;;;;;;;2.85;0.50;;;;;;;17.43;78.43;97376.50;5049290;28;20083;-71
2022/08/07 07:46:27;;;;;;;2.38;0.70;;;;;;;17.48;76.69;97381.91;5049939;28;20572;-71
2022/08/07 07:48:55;;;;;;;2.42;0.50;;;;;;;17.53;75.53;97370.28;5049918;28;20219;-71
2022/08/07 07:51:23;;;;;;;3.05;0.70;;;;;;;17.59;73.70;97381.88;5049142;28;20099;-73
2022/08/07 07:53:49;;;;;;;3.38;0.80;;;;;;;17.67;74.19;97382.19;5051391;28;20156;-71
2022/08/07 07:56:16;;;;;;;2.10;0.65;;;;;;;17.75;74.64;97372.75;5047971;28;20067;-71
2022/08/07 07:58:43;;;;;;;2.83;0.60;;;;;;;17.86;73.05;97370.81;5064006;28;20560;-71
2022/08/07 08:01:10;;;;;;;3.75;0.70;;;;;;;17.96;72.11;97368.91;5048083;28;20135;-71
2022/08/07 08:03:38;;;;;;;4.43;0.70;;;;;;;17.99;71.79;97373.78;5048900;28;20415;-71
2022/08/07 08:06:05;;;;;;;2.50;0.60;;;;;;;17.85;65.50;97371.91;5047884;28;20032;-72
2022/08/07 08:08:34;;;;;;;7.10;0.93;;;;;;;17.99;69.21;97373.78;5050991;28;20049;-72
2022/08/07 08:11:00;;;;;;;1.85;0.65;;;;;;;18.03;63.86;97371.31;5049194;28;20577;-71
2022/08/07 08:13:28;;;;;;;1.25;0.43;;;;;;;17.99;65.21;97367.56;5051992;28;20040;-71
2022/08/07 08:15:55;;;;;;;2.60;0.60;;;;;;;18.05;63.63;97366.44;5049851;28;20411;-71
2022/08/07 08:18:23;;;;;;;2.28;0.70;;;;;;;18.10;65.26;97364.53;5050572;28;20040;-71
2022/08/07 08:20:50;;;;;;;5.00;0.60;;;;;;;18.21;68.40;97362.63;5049922;28;20062;-71
2022/08/07 08:28:52;;;;;;;2.95;0.80;;;;;;;18.57;65.77;97367.91;5050324;28;20344;-71
2022/08/07 08:31:32;;;;;;;2.67;0.55;;;;;;;18.72;65.08;97367.06;5050186;28;20040;-71
2022/08/07 08:34:01;;;;;;;3.05;0.73;;;;;;;18.77;63.54;97367.06;5049518;28;20051;-72
2022/08/07 08:36:30;;;;;;;2.13;0.60;;;;;;;18.80;62.50;97355.63;5049849;28;20037;-72
2022/08/07 08:38:59;;;;;;;2.22;0.65;;;;;;;18.88;63.42;97358.56;5050047;28;20507;-72
2022/08/07 08:41:45;;;;;;;4.75;0.90;;;;;;;18.96;59.21;97357.16;5048515;28;20306;-71
2022/08/07 08:44:26;;;;;;;2.30;0.80;;;;;;;18.99;58.59;97353.91;5048236;28;20235;-72
2022/08/07 08:47:06;;;;;;;3.83;0.88;;;;;;;19.13;61.37;97351.38;5050517;28;20372;-71
2022/08/07 08:49:46;;;;;;;2.40;0.60;;;;;;;19.21;57.42;97350.75;5049187;28;20032;-72
2022/08/07 08:52:27;;;;;;;4.68;0.80;;;;;;;19.20;58.34;97347.25;5048361;28;20154;-71
2022/08/07 08:55:01;;;;;;;2.88;0.80;;;;;;;19.32;59.66;97351.53;5048688;28;20114;-72
2022/08/07 08:58:04;;;;;;;4.18;0.88;;;;;;;19.47;54.83;97348.69;5049653;28;20044;-71
2022/08/07 09:00:48;;;;;;;2.58;0.70;;;;;;;19.60;56.80;97347.22;5047847;28;20154;-71
2022/08/07 09:03:36;;;;;;;2.17;0.70;;;;;;;19.60;55.16;97341.81;5049145;28;20055;-72
2022/08/07 09:06:15;;;;;;;2.00;0.80;;;;;;;19.67;52.39;97348.53;5048604;28;20586;-71
2022/08/07 09:08:57;;;;;;;1.45;0.60;;;;;;;19.66;53.83;97346.09;5064851;28;20044;-72
2022/08/07 09:11:49;;;;;;;2.85;0.70;;;;;;;19.62;51.66;97345.88;5069309;28;20634;-71
2022/08/07 09:14:31;;;;;;;1.90;0.50;;;;;;;19.67;50.43;97353.94;5047841;28;20040;-72
2022/08/07 09:17:23;;;;;;;3.20;0.70;;;;;;;19.71;51.95;97343.34;5048315;28;20045;-71
2022/08/07 09:19:56;;;;;;;3.88;0.65;;;;;;;19.93;50.99;97340.97;5045657;28;20603;-72
2022/08/07 09:22:30;;;;;;;2.17;0.70;;;;;;;19.89;48.36;97339.09;5049388;28;20037;-71
2022/08/07 09:25:21;;;;;;;5.65;0.70;;;;;;;20.02;51.38;97347.38;5049349;28;20045;-72
2022/08/07 09:28:03;;;;;;;3.05;0.75;;;;;;;20.20;46.71;97334.16;5051614;28;20162;-72
2022/08/07 09:30:50;;;;;;;5.20;0.68;;;;;;;20.20;45.48;97336.88;5048317;28;20223;-71
2022/08/07 09:33:45;;;;;;;2.13;0.80;;;;;;;20.24;46.34;97330.59;5049414;28;20048;-71
2022/08/07 09:36:21;;;;;;;3.15;0.98;;;;;;;20.42;48.33;97336.34;5047713;28;20048;-72
2022/08/07 09:38:58;;;;;;;4.30;0.70;;;;;;;20.57;49.26;97330.75;5046963;28;20059;-71
2022/08/07 09:41:53;;;;;;;2.97;0.80;;;;;;;20.69;50.92;97320.25;5048464;28;20142;-72
2022/08/07 09:44:35;;;;;;;1.92;0.77;;;;;;;20.70;46.92;97321.88;5044688;28;20072;-71
2022/08/07 09:47:18;;;;;;;2.38;0.75;;;;;;;20.51;47.93;97321.03;5049832;28;20133;-72
2022/08/07 09:50:10;;;;;;;4.53;0.80;;;;;;;20.68;46.85;97317.81;5048759;28;20044;-72
2022/08/07 09:52:38;;;;;;;2.17;0.75;;;;;;;20.95;47.49;97318.00;5048751;28;20124;-72
2022/08/07 09:55:12;;;;;;;2.92;0.82;;;;;;;21.07;46.16;97310.19;5046984;28;20076;-72
2022/08/07 09:57:53;;;;;;;2.13;0.90;;;;;;;21.24;45.71;97311.56;5046533;28;20106;-71
2022/08/07 10:00:29;;;;;;;2.45;0.80;;;;;;;21.50;46.00;97307.38;5046267;28;20048;-72
2022/08/07 10:02:57;;;;;;;5.70;0.82;;;;;;;21.38;45.98;97301.56;5043578;28;20045;-72
2022/08/07 10:05:56;;;;;;;5.07;0.90;;;;;;;21.80;45.94;97297.84;5047832;28;20766;-72
2022/08/07 10:09:00;;;;;;;4.15;0.75;;;;;;;22.07;46.22;97283.44;5043666;28;20040;-72
2022/08/07 10:11:56;;;;;;;4.07;0.80;;;;;;;21.85;43.62;97278.69;5049277;28;20598;-72
2022/08/07 10:14:54;;;;;;;3.85;1.13;;;;;;;21.72;43.21;97286.84;5047338;28;20048;-72
2022/08/07 10:17:50;;;;;;;1.95;0.60;;;;;;;21.99;43.63;97278.69;5046271;28;20101;-72
2022/08/07 10:20:53;;;;;;;4.93;0.80;;;;;;;21.86;45.58;97274.03;5046135;28;20029;-72
2022/08/07 10:23:27;;;;;;;1.38;0.60;;;;;;;22.20;43.64;97270.97;5050449;28;20123;-72
2022/08/07 10:26:15;;;;;;;6.00;0.80;;;;;;;22.54;44.77;97259.59;5048951;28;20310;-72
2022/08/07 10:28:59;;;;;;;2.38;0.80;;;;;;;22.36;41.98;97269.53;5047474;28;20543;-72
2022/08/07 10:31:59;;;;;;;3.40;0.95;;;;;;;22.43;41.95;97275.38;5046449;28;20102;-72
2022/08/07 10:34:31;;;;;;;2.30;0.68;;;;;;;22.88;42.37;97266.50;5046724;28;20063;-72
2022/08/07 10:37:20;;;;;;;2.95;0.80;;;;;;;23.29;42.71;97267.16;5079436;28;20048;-72
2022/08/07 10:39:55;;;;;;;1.85;0.63;;;;;;;23.56;40.67;97268.94;5047016;28;20378;-72
2022/08/07 10:42:39;;;;;;;3.63;0.60;;;;;;;23.87;39.07;97271.69;5049682;28;20056;-72
2022/08/07 10:45:17;;;;;;;4.57;0.82;;;;;;;23.98;40.18;97265.97;5048549;28;21100;-72
2022/08/07 10:47:48;;;;;;;2.63;0.75;;;;;;;24.35;38.04;97267.38;5049332;28;20484;-72
2022/08/07 10:50:23;;;;;;;3.83;0.95;;;;;;;24.65;38.53;97260.22;5049230;28;20044;-72
2022/08/07 10:53:16;;;;;;;4.28;0.80;;;;;;;24.63;36.68;97259.72;5054649;28;20418;-72
2022/08/07 10:55:49;;;;;;;2.63;0.80;;;;;;;25.18;36.89;97257.19;5051156;28;20056;-72
2022/08/07 10:58:34;;;;;;;3.05;0.80;;;;;;;24.99;35.28;97249.28;5053365;28;20387;-72
2022/08/07 11:01:32;;;;;;;2.00;0.77;;;;;;;25.16;34.47;97258.66;5050183;28;20074;-72
2022/08/07 11:04:08;;;;;;;3.20;0.70;;;;;;;25.86;36.05;97242.91;5052722;28;20072;-72
2022/08/07 11:07:01;;;;;;;1.50;0.68;;;;;;;26.49;32.74;97254.88;5072780;28;20540;-72
2022/08/07 11:09:34;;;;;;;2.92;0.90;;;;;;;26.87;32.46;97249.28;5049983;28;20044;-72
2022/08/07 11:12:27;;;;;;;2.25;0.80;;;;;;;28.21;31.46;97246.13;5070006;28;20044;-72
2022/08/07 11:15:04;;;;;;;6.15;1.00;;;;;;;29.32;27.95;97236.53;5051980;28;20308;-72
2022/08/07 11:17:45;;;;;;;5.50;0.65;;;;;;;30.28;26.57;97230.00;5052896;28;20048;-72
2022/08/07 11:20:18;;;;;;;2.58;0.82;;;;;;;32.57;24.71;97230.50;5050089;28;20048;-72
2022/08/07 11:23:04;;;;;;;3.45;0.70;;;;;;;34.22;21.91;97212.59;5047239;28;20067;-72
2022/08/07 11:25:35;;;;;;;3.17;0.70;;;;;;;35.76;20.78;97213.38;5050900;28;20657;-72
2022/08/07 11:28:13;;;;;;;9.75;1.20;;;;;;;34.56;20.94;97210.50;5051336;28;20761;-72
2022/08/07 11:31:10;;;;;;;2.05;0.63;;;;;;;34.12;21.36;97213.31;5050748;28;20063;-72
2022/08/07 11:33:46;;;;;;;3.33;0.90;;;;;;;35.07;20.72;97208.78;5048241;28;20491;-72
2022/08/07 11:36:52;;;;;;;4.05;0.75;;;;;;;36.49;19.60;97216.56;5051578;28;20395;-72
2022/08/07 11:39:31;;;;;;;3.72;0.85;;;;;;;37.95;17.47;97201.22;5050193;28;20034;-72
2022/08/07 11:42:15;;;;;;;5.10;0.85;;;;;;;36.64;18.46;97201.41;5049385;28;20047;-72
2022/08/07 11:44:54;;;;;;;3.92;1.13;;;;;;;39.05;17.32;97186.19;5049676;28;20059;-72
2022/08/07 11:47:22;;;;;;;2.58;0.80;;;;;;;39.65;16.35;97192.22;5049627;28;20694;-73
2022/08/07 11:50:15;;;;;;;2.45;0.70;;;;;;;40.49;15.92;97191.28;5051349;28;20261;-72
2022/08/07 11:52:48;;;;;;;2.92;0.68;;;;;;;40.76;15.87;97188.34;5049719;28;20041;-72
2022/08/07 11:55:31;;;;;;;3.03;0.80;;;;;;;39.95;15.46;97192.13;5049973;28;20484;-73
2022/08/07 11:58:25;;;;;;;5.07;0.88;;;;;;;40.51;14.71;97186.00;5052132;28;20041;-73
2022/08/07 12:01:03;;;;;;;5.50;0.85;;;;;;;41.19;14.33;97191.09;5048947;28;20072;-73
2022/08/07 12:04:16;;;;;;;2.63;0.60;;;;;;;42.11;13.73;97182.59;5050919;28;20048;-73
2022/08/07 12:06:51;;;;;;;2.17;0.80;;;;;;;42.12;14.00;97180.56;5032167;28;20060;-72